AIRPORT ID: CO82

DATE: 2024-05-27 ZULU TIME: 21.55 LOCAL TIME: 14.55


METAR CO82 272155Z AUTO 00000KT 10SM 24/02 A3011

ALTIMETER: A3011 Q1020

DENSITY ALT: 6900 Ft

WIND DIRECT: 50

WIND SPEED: 1 Gust

WIND CONDITIONS:

VISIBILTY: 10SM 9999M

TEMPERATURE: 76 F 24 C

DEW POINT: 35 F 2 C

HUMID: 23%

LCL: Above 5,000 feet

RADIO CHECK: 0

ADVISARIES: 0

GREETINGS: 0

CONVERSATIONS: 0